Time;durP1;ratioP1;P1;durP2;ratioP2;P2;SDS_P1;SDS_P2;PMS_P1;PMS_P2;Temp;Humidity;BMP_temperature;BMP_pressure;BME280_temperature;BME280_humidity;BME280_pressure;Samples;Min_cycle;Max_cycle;Signal;HPM_P1;HPM_P2
2022/05/02 00:01:45;;;;;;;8.57;3.63;;;;;;;8.45;100.00;101466.03;7395314;19;20388;-52
2022/05/02 00:04:14;;;;;;;9.17;3.87;;;;;;;8.29;100.00;101475.38;7386628;19;20827;-50
2022/05/02 00:06:44;;;;;;;6.40;3.20;;;;;;;8.38;100.00;101434.81;7395079;19;20400;-50
2022/05/02 00:09:13;;;;;;;6.70;3.20;;;;;;;8.47;100.00;101434.47;7384979;19;20770;-51
2022/05/02 00:11:43;;;;;;;5.73;3.50;;;;;;;8.21;100.00;101426.06;7394844;19;20380;-52
2022/05/02 00:14:12;;;;;;;9.83;4.47;;;;;;;8.12;100.00;101425.50;7387080;19;20419;-48
2022/05/02 00:16:44;;;;;;;8.23;4.43;;;;;;;8.16;100.00;101422.31;7393092;19;20387;-54
2022/05/02 00:19:14;;;;;;;6.90;3.90;;;;;;;8.22;100.00;101420.13;7389015;19;20415;-49
2022/05/02 00:21:43;;;;;;;6.20;4.10;;;;;;;8.37;100.00;101406.44;7394408;19;20400;-58
2022/05/02 00:24:13;;;;;;;9.20;3.87;;;;;;;8.30;100.00;101412.00;7387182;19;20421;-53
2022/05/02 00:26:43;;;;;;;7.93;4.20;;;;;;;8.36;100.00;101402.09;7394295;19;20451;-56
2022/05/02 00:29:13;;;;;;;7.73;3.60;;;;;;;8.27;100.00;101414.38;7387831;19;20415;-52
2022/05/02 00:31:45;;;;;;;6.87;3.60;;;;;;;7.96;100.00;101409.09;7393905;19;20383;-58
2022/05/02 00:34:15;;;;;;;6.50;4.10;;;;;;;7.96;100.00;101393.69;7387442;19;20486;-54
2022/05/02 00:36:45;;;;;;;7.57;4.00;;;;;;;8.11;100.00;101393.75;7394075;19;20394;-50
2022/05/02 00:39:14;;;;;;;7.70;3.83;;;;;;;8.19;100.00;101375.34;7385930;19;20780;-55
2022/05/02 00:41:44;;;;;;;5.80;3.53;;;;;;;8.45;100.00;101369.22;7393994;19;20372;-52
2022/05/02 00:44:14;;;;;;;6.40;4.10;;;;;;;8.54;100.00;101381.78;7385721;19;20425;-52
2022/05/02 00:46:46;;;;;;;7.93;4.23;;;;;;;8.38;100.00;101408.22;7393655;19;20851;-57
2022/05/02 00:49:16;;;;;;;8.03;3.63;;;;;;;8.35;100.00;101392.59;7387012;19;20406;-53
2022/05/02 00:51:45;;;;;;;7.60;4.70;;;;;;;8.16;100.00;101391.47;7393499;19;20906;-58
2022/05/02 00:54:15;;;;;;;6.07;3.70;;;;;;;8.16;100.00;101382.88;7386396;19;20415;-53
2022/05/02 00:56:44;;;;;;;6.83;4.03;;;;;;;7.96;100.00;101387.66;7393492;19;20809;-57
2022/05/02 00:59:17;;;;;;;8.90;4.00;;;;;;;7.88;100.00;101394.91;7387624;19;20419;-54
2022/05/02 01:01:49;;;;;;;8.30;4.10;;;;;;;7.63;100.00;101403.59;7393386;19;20393;-51
2022/05/02 01:04:19;;;;;;;7.53;3.70;;;;;;;7.37;100.00;101400.25;7386472;19;20415;-55
2022/05/02 01:09:38;;;;;;;7.73;4.07;;;;;;;7.49;100.00;101383.88;7386442;19;20426;-54
2022/05/02 01:12:14;;;;;;;6.87;3.83;;;;;;;7.37;100.00;101395.13;7392739;19;20416;-56
2022/05/02 01:14:44;;;;;;;12.00;4.23;;;;;;;7.52;100.00;101363.50;7388622;19;20458;-53
2022/05/02 01:17:17;;;;;;;8.20;3.87;;;;;;;7.56;100.00;101375.75;7393095;19;20398;-49
2022/05/02 01:19:47;;;;;;;8.13;3.90;;;;;;;7.62;100.00;101368.44;7388008;19;20501;-51
2022/05/02 01:22:19;;;;;;;11.13;4.20;;;;;;;7.43;100.00;101382.66;7392244;19;20398;-55
2022/05/02 01:24:50;;;;;;;7.40;4.23;;;;;;;7.59;100.00;101360.53;7391041;19;20423;-54
2022/05/02 01:27:20;;;;;;;8.90;4.70;;;;;;;7.63;100.00;101365.06;7393210;19;20383;-54
2022/05/02 01:29:50;;;;;;;7.37;3.97;;;;;;;7.45;100.00;101379.31;7398480;19;20413;-54
2022/05/02 01:32:19;;;;;;;8.80;4.67;;;;;;;7.24;100.00;101379.72;7399774;19;20393;-55
2022/05/02 01:34:49;;;;;;;8.60;4.10;;;;;;;7.14;100.00;101386.78;7399879;19;20434;-55
2022/05/02 01:37:22;;;;;;;8.30;4.43;;;;;;;7.23;100.00;101367.66;7399747;19;20738;-49
2022/05/02 01:39:51;;;;;;;8.63;4.37;;;;;;;7.32;100.00;101364.81;7399371;19;20429;-52
2022/05/02 01:42:21;;;;;;;12.03;4.00;;;;;;;7.34;100.00;101361.53;7399440;19;20384;-56
2022/05/02 01:44:50;;;;;;;7.67;4.00;;;;;;;6.95;100.00;101383.78;7397177;19;20403;-50
2022/05/02 01:47:20;;;;;;;6.07;3.83;;;;;;;6.76;100.00;101374.88;7399606;19;20394;-50
2022/05/02 01:49:50;;;;;;;8.90;4.53;;;;;;;7.00;100.00;101356.78;7398699;19;20421;-57
2022/05/02 01:52:22;;;;;;;7.03;4.80;;;;;;;7.03;100.00;101357.00;7398986;19;20848;-51
2022/05/02 01:54:51;;;;;;;6.13;4.20;;;;;;;6.82;100.00;101362.44;7397137;19;20425;-58
2022/05/02 01:57:21;;;;;;;7.97;4.27;;;;;;;6.90;100.00;101350.16;7393689;19;20429;-52
2022/05/02 01:59:50;;;;;;;7.07;4.53;;;;;;;7.16;100.00;101326.19;7402177;19;20513;-51
2022/05/02 02:02:20;;;;;;;10.50;5.30;;;;;;;7.12;100.00;101325.88;7398758;19;20916;-54
2022/05/02 02:07:34;;;;;;;8.40;4.60;;;;;;;6.62;100.00;101328.66;7391812;19;20387;-50
2022/05/02 02:10:03;;;;;;;6.77;4.17;;;;;;;6.31;100.00;101338.53;7398613;19;20901;-54
2022/05/02 02:12:33;;;;;;;8.77;5.17;;;;;;;6.51;100.00;101303.97;7391336;19;20383;-53
2022/05/02 02:15:02;;;;;;;8.50;4.60;;;;;;;6.72;100.00;101298.53;7397338;19;20412;-56
2022/05/02 02:17:32;;;;;;;9.40;5.07;;;;;;;6.71;100.00;101297.63;7393620;19;20399;-51
2022/05/02 02:20:01;;;;;;;10.43;5.27;;;;;;;6.85;100.00;101284.81;7397753;19;20368;-58
2022/05/02 02:22:33;;;;;;;7.33;4.10;;;;;;;6.85;100.00;101290.84;7392111;19;20397;-54
2022/05/02 02:25:03;;;;;;;8.23;4.47;;;;;;;6.77;100.00;101278.31;7396646;19;20414;-52
2022/05/02 02:27:33;;;;;;;7.60;4.50;;;;;;;7.00;100.00;101254.13;7391128;19;20390;-54
2022/05/02 02:30:02;;;;;;;6.23;4.30;;;;;;;6.86;100.00;101268.63;7397953;19;20393;-54
2022/05/02 02:32:32;;;;;;;12.63;5.83;;;;;;;6.67;100.00;101276.81;7388590;19;20395;-50
2022/05/02 02:35:01;;;;;;;9.03;5.33;;;;;;;6.48;100.00;101271.34;7396318;19;20402;-52
2022/05/02 02:37:33;;;;;;;10.17;5.97;;;;;;;6.54;100.00;101257.16;7393635;19;20399;-55
2022/05/02 02:40:03;;;;;;;8.10;4.50;;;;;;;6.45;100.00;101260.91;7396604;19;20730;-50
2022/05/02 02:42:32;;;;;;;9.63;5.03;;;;;;;6.24;100.00;101268.03;7392289;19;20388;-54
2022/05/02 02:45:02;;;;;;;12.20;5.00;;;;;;;6.13;100.00;101259.63;7395745;19;20416;-50
2022/05/02 02:47:31;;;;;;;10.10;5.60;;;;;;;6.03;100.00;101254.66;7390944;19;20385;-54
2022/05/02 02:50:01;;;;;;;8.63;4.77;;;;;;;6.03;100.00;101252.09;7397083;19;20377;-52
2022/05/02 02:52:30;;;;;;;9.03;4.60;;;;;;;5.98;100.00;101231.25;7388520;19;20743;-53
2022/05/02 02:55:02;;;;;;;9.47;5.10;;;;;;;6.22;100.00;101193.59;7395415;19;20409;-52
2022/05/02 02:57:33;;;;;;;8.10;4.83;;;;;;;5.98;100.00;101203.06;7390148;19;20430;-51
2022/05/02 03:00:03;;;;;;;9.77;5.60;;;;;;;6.07;100.00;101183.22;7396708;19;20475;-56
2022/05/02 03:02:33;;;;;;;11.00;5.70;;;;;;;6.27;100.00;101158.06;7388708;19;20393;-54
2022/05/02 03:07:44;;;;;;;7.70;5.40;;;;;;;5.77;100.00;101165.00;7391712;19;20412;-51
2022/05/02 03:10:16;;;;;;;10.07;5.03;;;;;;;5.67;100.00;101162.56;7396583;19;20932;-56
2022/05/02 03:12:46;;;;;;;10.20;4.80;;;;;;;5.55;100.00;101170.31;7391157;19;20410;-58
2022/05/02 03:15:15;;;;;;;8.00;4.90;;;;;;;5.43;100.00;101165.22;7395171;19;20768;-58
2022/05/02 03:17:45;;;;;;;7.17;4.50;;;;;;;5.44;100.00;101166.13;7391902;19;20397;-54
2022/05/02 03:20:14;;;;;;;8.20;4.37;;;;;;;5.44;100.00;101156.75;7396300;19;20725;-54
2022/05/02 03:22:44;;;;;;;6.90;4.50;;;;;;;5.58;100.00;101156.84;7390541;19;20416;-52
2022/05/02 03:25:16;;;;;;;11.90;5.20;;;;;;;5.74;100.00;101157.09;7394818;19;20421;-50
2022/05/02 03:27:45;;;;;;;9.37;5.20;;;;;;;5.71;100.00;101167.13;7387448;19;20413;-58
2022/05/02 03:30:15;;;;;;;10.20;5.53;;;;;;;5.69;100.00;101148.19;7396208;19;20385;-57
2022/05/02 03:32:45;;;;;;;7.77;4.90;;;;;;;5.71;100.00;101135.50;7390102;19;20754;-50
2022/05/02 03:35:14;;;;;;;7.70;4.47;;;;;;;5.68;100.00;101128.50;7394317;19;20417;-50
2022/05/02 03:37:44;;;;;;;8.57;5.80;;;;;;;5.68;100.00;101120.81;7390713;19;20507;-54
2022/05/02 03:40:16;;;;;;;10.83;5.53;;;;;;;5.64;100.00;101118.84;7398083;19;20921;-56
2022/05/02 03:42:45;;;;;;;8.60;5.10;;;;;;;5.49;100.00;101117.00;7388496;19;20765;-54
2022/05/02 03:45:15;;;;;;;12.27;5.50;;;;;;;5.47;100.00;101115.13;7398350;19;20424;-54
2022/05/02 03:47:44;;;;;;;21.47;11.37;;;;;;;5.60;100.00;101097.28;7387654;19;20489;-56
2022/05/02 03:50:14;;;;;;;51.57;27.13;;;;;;;5.79;100.00;101081.47;7393622;19;20931;-51
2022/05/02 03:52:43;;;;;;;11.27;6.67;;;;;;;5.54;100.00;101092.63;7388335;19;20420;-54
2022/05/02 03:55:15;;;;;;;18.40;7.93;;;;;;;5.30;100.00;101096.06;7394020;19;20499;-55
2022/05/02 03:57:45;;;;;;;7.30;4.73;;;;;;;5.33;100.00;101075.81;7391864;19;20413;-56
2022/05/02 04:00:15;;;;;;;10.33;5.40;;;;;;;5.33;100.00;101075.81;7395346;19;20698;-52
2022/05/02 04:02:51;;;;;;;9.53;5.30;;;;;;;5.37;100.00;101077.78;7386846;19;20430;-49
2022/05/02 04:05:21;;;;;;;11.30;5.30;;;;;;;5.44;100.00;101064.63;7393157;19;20449;-55
2022/05/02 04:07:51;;;;;;;9.40;5.60;;;;;;;5.63;100.00;101045.38;7389424;19;20492;-57
2022/05/02 04:10:23;;;;;;;9.67;5.27;;;;;;;5.64;100.00;101047.19;7394595;19;20387;-58
2022/05/02 04:12:52;;;;;;;11.13;5.47;;;;;;;5.49;100.00;101055.59;7387593;19;20424;-51
2022/05/02 04:15:22;;;;;;;9.13;5.37;;;;;;;5.43;100.00;101067.97;7393039;19;20413;-56
2022/05/02 04:17:51;;;;;;;14.47;8.57;;;;;;;5.37;100.00;101073.56;7388475;19;20818;-53
2022/05/02 04:20:21;;;;;;;15.40;8.37;;;;;;;5.51;100.00;101069.41;7394220;19;20397;-55
2022/05/02 04:22:50;;;;;;;16.73;8.90;;;;;;;5.40;100.00;101073.75;7388987;19;20405;-55
2022/05/02 04:25:22;;;;;;;28.17;15.47;;;;;;;5.38;100.00;101074.44;7392680;19;20938;-56
2022/05/02 04:27:51;;;;;;;16.37;8.50;;;;;;;5.63;100.00;101048.84;7387349;19;20419;-50
2022/05/02 04:30:21;;;;;;;19.47;10.80;;;;;;;5.74;100.00;101039.28;7394033;19;20752;-57
2022/05/02 04:32:50;;;;;;;23.23;12.20;;;;;;;5.91;100.00;101026.72;7386177;19;20421;-51
2022/05/02 04:35:20;;;;;;;11.93;6.80;;;;;;;5.53;100.00;101055.00;7392314;19;20426;-55
2022/05/02 04:37:49;;;;;;;16.13;8.67;;;;;;;5.40;100.00;101060.97;7387019;19;20424;-50
2022/05/02 04:40:19;;;;;;;20.50;10.17;;;;;;;5.38;100.00;101059.09;7393827;19;20386;-51
2022/05/02 04:42:51;;;;;;;21.30;7.80;;;;;;;5.68;100.00;101044.00;7388656;19;20424;-58
2022/05/02 04:45:21;;;;;;;13.33;7.43;;;;;;;5.90;100.00;101041.19;7392031;19;20407;-56
2022/05/02 04:47:50;;;;;;;14.53;8.30;;;;;;;5.78;100.00;101051.53;7386534;19;20413;-55
2022/05/02 04:50:20;;;;;;;17.83;9.17;;;;;;;5.68;100.00;101059.38;7393851;19;20384;-53
2022/05/02 04:52:49;;;;;;;16.63;7.13;;;;;;;5.77;100.00;101057.44;7387094;19;20410;-54
2022/05/02 04:55:19;;;;;;;13.40;7.03;;;;;;;5.82;100.00;101055.16;7391938;19;20430;-55
2022/05/02 04:57:48;;;;;;;12.80;6.40;;;;;;;6.46;100.00;101033.66;7386252;19;20489;-53
2022/05/02 05:00:21;;;;;;;9.97;6.50;;;;;;;6.44;100.00;101065.97;7393267;19;20403;-50
2022/05/02 05:02:51;;;;;;;15.63;6.47;;;;;;;6.77;100.00;101076.56;7387726;19;20418;-55
2022/05/02 05:05:25;;;;;;;45.97;24.63;;;;;;;6.91;100.00;101109.91;7391422;19;20429;-52
2022/05/02 05:07:54;;;;;;;52.83;25.17;;;;;;;6.57;100.00;101140.28;7384191;19;20760;-54
2022/05/02 05:10:24;;;;;;;13.50;8.30;;;;;;;6.46;100.00;101156.69;7392776;19;20381;-56
2022/05/02 05:13:03;;;;;;;49.77;26.07;;;;;;;6.66;100.00;101160.50;7383343;19;20940;-54
2022/05/02 05:19:22;;;;;;;16.60;8.10;;;;;;;6.71;100.00;101197.59;7386817;19;20520;-54
2022/05/02 05:22:00;;;;;;;16.53;7.90;;;;;;;7.16;100.00;101207.25;7392071;19;21007;-57
2022/05/02 05:24:54;;;;;;;22.70;10.40;;;;;;;7.18;100.00;101223.63;7385593;19;20969;-54
2022/05/02 05:27:37;;;;;;;13.70;6.10;;;;;;;7.05;100.00;101239.94;7385593;19;20716;-55
2022/05/02 05:30:09;;;;;;;12.37;6.00;;;;;;;7.06;100.00;101243.38;7392351;19;20392;-49
2022/05/02 05:32:43;;;;;;;14.10;7.00;;;;;;;7.50;100.00;101242.75;7386518;19;20392;-56
2022/05/02 05:35:18;;;;;;;10.53;6.00;;;;;;;7.45;100.00;101267.25;7390841;19;20479;-56
2022/05/02 05:38:00;;;;;;;12.10;7.10;;;;;;;7.50;100.00;101272.66;7387876;19;20486;-53
2022/05/02 05:40:33;;;;;;;11.70;6.40;;;;;;;7.51;100.00;101277.00;7391716;19;20721;-60
2022/05/02 05:43:11;;;;;;;10.03;5.43;;;;;;;7.66;100.00;101288.25;7388046;19;20424;-57
2022/05/02 05:45:51;;;;;;;11.17;5.20;;;;;;;7.82;100.00;101314.84;7389789;19;20791;-57
2022/05/02 05:48:28;;;;;;;10.60;5.03;;;;;;;7.92;100.00;101327.50;7390271;19;20407;-56
2022/05/02 05:51:06;;;;;;;11.40;5.73;;;;;;;7.95;100.00;101327.66;7392215;19;20836;-53
2022/05/02 05:53:42;;;;;;;11.93;6.27;;;;;;;8.09;100.00;101331.09;7384259;19;20409;-56
2022/05/02 05:56:26;;;;;;;11.50;6.33;;;;;;;8.23;100.00;101349.94;7392660;19;20427;-52
2022/05/02 05:59:03;;;;;;;38.47;21.30;;;;;;;8.54;100.00;101353.47;7386027;19;20472;-56
2022/05/02 06:01:52;;;;;;;112.97;58.27;;;;;;;8.69;100.00;101380.91;7390294;19;20772;-54
2022/05/02 06:04:22;;;;;;;11.77;7.60;;;;;;;8.53;100.00;101404.81;7384081;19;20423;-54
2022/05/02 06:06:56;;;;;;;13.13;7.17;;;;;;;8.43;100.00;101404.25;7391432;19;20459;-51
2022/05/02 06:09:26;;;;;;;35.43;7.13;;;;;;;8.44;100.00;101418.88;7384585;19;20435;-55
2022/05/02 06:11:57;;;;;;;10.00;5.87;;;;;;;8.51;100.00;101421.06;7391577;19;20390;-55
2022/05/02 06:14:31;;;;;;;42.57;14.00;;;;;;;8.68;100.00;101418.63;7385710;19;21029;-55
2022/05/02 06:19:49;;;;;;;9.57;4.27;;;;;;;8.81;100.00;101461.41;7395298;19;20419;-56
2022/05/02 06:22:21;;;;;;;9.93;4.57;;;;;;;8.81;100.00;101479.41;7398440;19;20405;-56
2022/05/02 06:24:52;;;;;;;5.90;3.40;;;;;;;8.86;100.00;101501.19;7395806;19;20403;-53
2022/05/02 06:27:22;;;;;;;5.00;3.23;;;;;;;8.97;100.00;101514.69;7398131;19;20402;-52
2022/05/02 06:29:52;;;;;;;7.50;3.90;;;;;;;9.10;100.00;101518.00;7394980;19;20769;-56
2022/05/02 06:32:22;;;;;;;6.60;3.50;;;;;;;9.19;100.00;101527.16;7397956;19;20467;-51
2022/05/02 06:34:51;;;;;;;6.07;3.90;;;;;;;9.25;100.00;101525.75;7396549;19;20407;-57
2022/05/02 06:37:35;;;;;;;6.50;3.07;;;;;;;9.30;100.00;101543.28;7397726;19;20391;-59
2022/05/02 06:40:12;;;;;;;4.47;2.40;;;;;;;9.43;100.00;101557.75;7397758;19;20407;-56
2022/05/02 06:42:45;;;;;;;5.40;2.73;;;;;;;9.54;100.00;101562.66;7387759;19;20466;-55
2022/05/02 06:45:29;;;;;;;13.63;4.30;;;;;;;9.65;100.00;101555.56;7398087;19;20431;-55
2022/05/02 06:48:27;;;;;;;6.10;2.60;;;;;;;9.70;100.00;101572.19;7392669;19;20749;-55
2022/05/02 06:50:58;;;;;;;5.30;2.57;;;;;;;9.71;100.00;101586.84;7397070;19;20451;-56
2022/05/02 06:53:51;;;;;;;3.80;1.90;;;;;;;9.79;100.00;101595.03;7390243;19;20427;-52
2022/05/02 06:56:27;;;;;;;35.00;9.83;;;;;;;9.91;100.00;101598.31;7394841;19;20422;-54
2022/05/02 06:59:03;;;;;;;4.10;2.37;;;;;;;9.97;100.00;101587.47;7390339;19;20433;-51
2022/05/02 07:01:40;;;;;;;6.20;2.87;;;;;;;10.24;100.00;101587.25;7401252;19;20395;-54
2022/05/02 07:04:23;;;;;;;4.23;2.20;;;;;;;10.41;100.00;101595.91;7389768;19;20442;-54
2022/05/02 07:07:03;;;;;;;5.07;1.80;;;;;;;10.63;100.00;101598.06;7396698;19;20390;-52
2022/05/02 07:09:44;;;;;;;5.30;2.00;;;;;;;10.55;100.00;101598.44;7391979;19;20414;-53
2022/05/02 07:12:19;;;;;;;10.90;2.20;;;;;;;10.50;100.00;101595.59;7396490;19;20386;-56
2022/05/02 07:15:06;;;;;;;4.90;2.10;;;;;;;10.48;100.00;101597.19;7393478;19;20961;-54
2022/05/02 07:17:46;;;;;;;4.90;2.00;;;;;;;10.68;100.00;101595.72;7391583;19;20471;-50
2022/05/02 07:20:20;;;;;;;4.47;2.00;;;;;;;10.83;100.00;101598.25;7396442;19;20380;-57
2022/05/02 07:22:57;;;;;;;12.20;2.57;;;;;;;10.90;100.00;101596.88;7390146;19;20417;-50
2022/05/02 07:25:31;;;;;;;9.30;3.77;;;;;;;10.99;100.00;101606.81;7394395;19;20423;-54
2022/05/02 07:28:10;;;;;;;19.77;7.07;;;;;;;10.94;100.00;101602.28;7390291;19;20415;-55
2022/05/02 07:30:40;;;;;;;10.23;3.00;;;;;;;10.70;100.00;101606.09;7395961;19;20947;-55
2022/05/02 07:33:10;;;;;;;5.97;2.67;;;;;;;10.76;100.00;101602.19;7388858;19;20768;-58
2022/05/02 07:35:41;;;;;;;6.23;2.73;;;;;;;10.99;100.00;101612.88;7398389;19;20434;-56
2022/05/02 07:38:11;;;;;;;4.93;2.50;;;;;;;11.11;100.00;101610.06;7390277;19;20422;-52
2022/05/02 07:41:22;;;;;;;5.70;2.70;;;;;;;11.14;100.00;101601.59;7395497;19;20782;-58
2022/05/02 07:43:36;;;;;;;5.67;2.50;;;;;;;11.14;100.00;101599.91;7388688;19;20409;-54
2022/05/02 07:46:06;;;;;;;4.20;1.90;;;;;;;11.17;100.00;101597.47;7394100;19;20420;-52
2022/05/02 07:48:37;;;;;;;8.27;3.07;;;;;;;11.22;100.00;101605.44;7387928;19;20967;-56
2022/05/02 07:51:07;;;;;;;6.97;2.23;;;;;;;11.37;100.00;101602.78;7396629;19;20402;-53
2022/05/02 07:53:38;;;;;;;14.80;5.87;;;;;;;11.47;100.00;101597.28;7389764;19;20784;-53
2022/05/02 07:56:11;;;;;;;8.83;2.43;;;;;;;11.53;100.00;101606.19;7398267;19;20428;-55
2022/05/02 07:58:43;;;;;;;7.97;3.50;;;;;;;11.57;100.00;101608.09;7386858;19;20426;-47
2022/05/02 08:01:13;;;;;;;6.43;3.70;;;;;;;11.51;100.00;101608.66;7395267;19;20387;-57
2022/05/02 08:03:42;;;;;;;6.90;3.93;;;;;;;11.55;100.00;101604.53;7388217;19;20455;-54
2022/05/02 08:06:22;;;;;;;7.07;3.60;;;;;;;11.65;100.00;101604.22;7395352;19;20783;-54
2022/05/02 08:09:00;;;;;;;10.03;4.10;;;;;;;11.60;100.00;101608.25;7389296;19;20414;-58
2022/05/02 08:11:42;;;;;;;7.50;4.00;;;;;;;11.55;100.00;101604.53;7394688;19;20397;-56
2022/05/02 08:14:16;;;;;;;8.80;3.60;;;;;;;11.79;100.00;101615.22;7385914;19;20441;-53
2022/05/02 08:17:05;;;;;;;7.40;4.40;;;;;;;11.90;100.00;101613.22;7392719;19;20921;-59
2022/05/02 08:19:43;;;;;;;6.63;4.10;;;;;;;11.51;99.28;101607.78;7385800;19;20433;-55
2022/05/02 08:27:56;;;;;;;10.83;4.47;;;;;;;11.80;98.65;101604.06;7387318;19;20407;-58
2022/05/02 08:30:26;;;;;;;10.33;4.17;;;;;;;11.91;98.10;101609.81;7393823;19;20397;-56
2022/05/02 08:33:02;;;;;;;8.80;5.07;;;;;;;12.00;93.02;101610.25;7388460;19;20780;-60
2022/05/02 08:35:51;;;;;;;9.10;4.70;;;;;;;12.07;93.05;101601.16;7391910;19;20420;-57
2022/05/02 08:38:43;;;;;;;37.57;22.60;;;;;;;12.27;98.75;101599.50;7388454;19;20417;-56
2022/05/02 08:41:43;;;;;;;8.10;4.17;;;;;;;12.33;95.96;101596.34;7393355;19;21017;-55
2022/05/02 08:44:52;;;;;;;13.80;6.70;;;;;;;12.21;97.99;101591.44;7383901;19;20437;-56
2022/05/02 08:47:50;;;;;;;6.47;3.53;;;;;;;12.52;100.00;101595.50;7390301;19;20391;-53
2022/05/02 08:50:25;;;;;;;10.60;5.33;;;;;;;12.47;100.00;101594.44;7393583;19;20433;-54
2022/05/02 08:53:29;;;;;;;7.63;4.47;;;;;;;11.98;94.82;101598.97;7386159;19;20428;-55
2022/05/02 08:56:10;;;;;;;12.17;5.00;;;;;;;12.16;94.60;101590.38;7391746;19;20971;-54
2022/05/02 08:59:11;;;;;;;6.40;3.80;;;;;;;12.65;95.28;101588.31;7387487;19;20481;-56
2022/05/02 09:02:20;;;;;;;24.30;12.20;;;;;;;12.90;100.00;101586.84;7389869;19;20402;-55
2022/05/02 09:05:23;;;;;;;8.23;4.27;;;;;;;12.74;90.79;101574.91;7391243;19;20420;-49
2022/05/02 09:08:09;;;;;;;15.43;7.33;;;;;;;12.42;94.61;101577.78;7387808;19;21039;-48
2022/05/02 09:11:11;;;;;;;9.77;4.90;;;;;;;12.60;92.67;101574.28;7395941;19;20937;-52
2022/05/02 09:14:03;;;;;;;10.80;6.37;;;;;;;12.40;92.15;101580.28;7385188;19;20416;-55
2022/05/02 09:17:17;;;;;;;11.07;5.97;;;;;;;12.48;92.05;101566.81;7388653;19;20443;-53
2022/05/02 09:20:09;;;;;;;9.13;4.90;;;;;;;12.85;93.09;101568.53;7383382;19;20418;-49
2022/05/02 09:23:17;;;;;;;9.27;4.60;;;;;;;12.90;88.78;101560.94;7386322;19;20401;-55
2022/05/02 09:26:06;;;;;;;10.93;5.20;;;;;;;12.97;89.62;101563.00;7389000;19;20431;-59
2022/05/02 09:28:46;;;;;;;8.73;4.70;;;;;;;13.08;91.25;101561.78;7383040;19;20726;-52
2022/05/02 09:31:23;;;;;;;8.90;6.00;;;;;;;13.29;90.47;101560.06;7392211;19;20394;-51
2022/05/02 09:34:09;;;;;;;17.23;10.23;;;;;;;13.31;90.49;101559.31;7387088;19;20421;-55
2022/05/02 09:36:44;;;;;;;9.07;6.00;;;;;;;13.39;90.58;101550.97;7393317;19;20406;-50
2022/05/02 09:39:16;;;;;;;10.80;5.57;;;;;;;13.31;89.47;101554.13;7382544;19;20415;-50
2022/05/02 09:42:08;;;;;;;14.87;8.07;;;;;;;13.62;90.70;101545.09;7392210;19;20394;-56
2022/05/02 09:50:57;;;;;;;10.90;6.10;;;;;;;13.36;91.18;101550.03;7395345;19;20397;-54
2022/05/02 09:53:32;;;;;;;10.60;6.43;;;;;;;13.54;93.20;101541.28;7389763;19;20416;-55
2022/05/02 09:59:09;;;;;;;12.03;6.40;;;;;;;13.90;88.77;101541.03;7388724;19;20466;-59
2022/05/02 10:01:43;;;;;;;10.70;5.60;;;;;;;13.85;89.81;101536.50;7398207;19;20396;-53
2022/05/02 10:04:31;;;;;;;12.80;6.53;;;;;;;14.06;91.29;101536.47;7390274;19;20489;-52
2022/05/02 10:07:08;;;;;;;11.30;6.63;;;;;;;14.38;89.26;101534.25;7397153;19;20472;-54
2022/05/02 10:09:53;;;;;;;10.20;6.30;;;;;;;14.12;86.43;101531.53;7393245;19;20437;-57
2022/05/02 10:12:30;;;;;;;13.40;6.57;;;;;;;14.11;86.44;101528.88;7390570;19;20421;-59
2022/05/02 10:15:27;;;;;;;20.87;12.53;;;;;;;14.13;89.13;101527.22;7395271;19;20422;-54
2022/05/02 10:18:14;;;;;;;11.00;4.57;;;;;;;14.15;89.90;101523.00;7387469;19;20962;-57
2022/05/02 10:21:02;;;;;;;16.27;9.00;;;;;;;14.35;87.12;101517.69;7396977;19;20391;-54
2022/05/02 10:23:47;;;;;;;17.97;9.73;;;;;;;14.48;87.06;101517.31;7390131;19;20507;-54
2022/05/02 10:26:31;;;;;;;14.80;6.90;;;;;;;14.57;86.69;101507.25;7395217;19;20423;-54
2022/05/02 10:29:42;;;;;;;10.60;6.00;;;;;;;13.73;86.76;101514.41;7387370;19;21015;-54
2022/05/02 10:32:28;;;;;;;10.43;6.33;;;;;;;14.25;86.28;101500.88;7397117;19;20387;-53
2022/05/02 10:35:02;;;;;;;10.63;5.37;;;;;;;14.54;86.75;101503.66;7394387;19;20596;-53
2022/05/02 10:37:37;;;;;;;8.23;4.97;;;;;;;14.34;88.05;101510.69;7392068;19;20470;-54
2022/05/02 10:40:10;;;;;;;9.80;5.40;;;;;;;14.27;85.78;101496.63;7396443;19;20383;-53
2022/05/02 10:42:45;;;;;;;8.40;5.60;;;;;;;14.37;84.16;101511.72;7389230;19;20384;-55
2022/05/02 10:45:16;;;;;;;10.80;6.20;;;;;;;14.21;83.03;101510.25;7394106;19;20426;-57
2022/05/02 10:47:54;;;;;;;8.47;5.40;;;;;;;14.26;84.77;101502.63;7390743;19;20416;-52
2022/05/02 10:50:28;;;;;;;9.87;5.40;;;;;;;14.54;83.72;101494.19;7396849;19;20392;-59
2022/05/02 10:53:16;;;;;;;10.67;5.73;;;;;;;14.48;81.95;101488.75;7387814;19;20427;-51
2022/05/02 10:55:54;;;;;;;10.00;5.60;;;;;;;14.54;82.11;101483.78;7394716;19;20439;-58
2022/05/02 10:58:25;;;;;;;12.43;5.57;;;;;;;14.60;82.11;101483.13;7388529;19;20497;-58
2022/05/02 11:01:10;;;;;;;17.77;10.43;;;;;;;14.15;84.05;101487.53;7396709;19;20424;-52
2022/05/02 11:03:47;;;;;;;32.27;18.03;;;;;;;13.69;85.23;101493.50;7396620;19;20445;-59
2022/05/02 11:06:28;;;;;;;39.23;19.17;;;;;;;13.76;88.55;101490.31;7394571;19;20475;-51
2022/05/02 11:09:01;;;;;;;9.43;5.70;;;;;;;14.21;87.79;101483.41;7391468;19;20418;-56
2022/05/02 11:11:48;;;;;;;8.87;4.80;;;;;;;14.62;87.40;101471.09;7396874;19;20459;-56
2022/05/02 11:14:32;;;;;;;22.83;12.00;;;;;;;14.53;85.48;101481.13;7390974;19;20959;-54
2022/05/02 11:17:10;;;;;;;11.80;6.60;;;;;;;14.30;85.05;101483.75;7397508;19;20404;-58
2022/05/02 11:22:29;;;;;;;14.47;5.57;;;;;;;14.72;86.40;101475.78;7391121;19;20392;-55
2022/05/02 11:25:06;;;;;;;16.50;9.60;;;;;;;14.58;85.01;101469.22;7394193;19;20423;-58
2022/05/02 11:27:51;;;;;;;87.90;42.67;;;;;;;14.48;84.10;101472.28;7390193;19;20375;-55
2022/05/02 11:30:23;;;;;;;37.10;18.53;;;;;;;14.71;84.68;101471.41;7394771;19;20395;-58
2022/05/02 11:33:05;;;;;;;24.60;9.67;;;;;;;14.73;83.82;101461.09;7388983;19;20423;-57
2022/05/02 11:35:38;;;;;;;11.93;5.20;;;;;;;14.58;84.78;101469.22;7393902;19;20423;-52
2022/05/02 11:38:13;;;;;;;41.57;20.70;;;;;;;14.70;84.71;101473.94;7390110;19;20424;-55
2022/05/02 11:40:47;;;;;;;13.60;7.77;;;;;;;14.80;84.29;101459.63;7399644;19;20396;-56
2022/05/02 11:43:17;;;;;;;54.70;12.47;;;;;;;15.13;84.78;101459.06;7387720;19;20489;-54
2022/05/02 11:45:53;;;;;;;11.63;6.50;;;;;;;15.18;84.12;101457.47;7393670;19;20764;-54
2022/05/02 11:49:04;;;;;;;10.80;5.63;;;;;;;15.47;82.32;101460.16;7387751;19;20419;-55
2022/05/02 11:51:47;;;;;;;22.13;9.93;;;;;;;15.27;82.60;101458.63;7393445;19;20409;-51
2022/05/02 11:54:39;;;;;;;32.43;16.50;;;;;;;15.14;82.29;101459.91;7387715;19;20423;-51
2022/05/02 11:57:17;;;;;;;10.70;6.80;;;;;;;15.02;84.51;101452.59;7393550;19;20413;-56
2022/05/02 11:59:57;;;;;;;19.70;10.03;;;;;;;15.05;83.35;101450.97;7386742;19;20441;-57
2022/05/02 12:02:52;;;;;;;27.93;13.60;;;;;;;14.65;85.47;101442.63;7391016;19;20400;-59
2022/05/02 12:05:31;;;;;;;11.83;6.83;;;;;;;14.81;88.03;101453.59;7392595;19;20745;-54
2022/05/02 12:08:06;;;;;;;33.77;15.07;;;;;;;14.75;86.52;101445.56;7386565;19;20427;-52
2022/05/02 12:10:38;;;;;;;9.73;6.67;;;;;;;14.96;86.35;101442.84;7394223;19;20379;-55
2022/05/02 12:13:10;;;;;;;8.63;6.20;;;;;;;14.66;87.92;101438.34;7387069;19;20427;-58
2022/05/02 12:15:56;;;;;;;10.23;6.50;;;;;;;14.94;90.42;101435.03;7392224;19;20852;-53
2022/05/02 12:18:26;;;;;;;10.97;4.90;;;;;;;15.24;89.66;101434.28;7389073;19;20419;-53
2022/05/02 12:20:58;;;;;;;29.47;13.40;;;;;;;15.14;88.55;101429.63;7394347;19;20379;-58
2022/05/02 12:23:35;;;;;;;21.07;11.57;;;;;;;15.35;87.78;101439.84;7388440;19;20424;-57
2022/05/02 12:26:05;;;;;;;8.57;6.10;;;;;;;15.88;85.16;101435.41;7392943;19;20949;-55
2022/05/02 12:28:43;;;;;;;10.80;6.50;;;;;;;15.70;85.60;101431.41;7386354;19;20419;-53
2022/05/02 12:31:20;;;;;;;14.33;8.07;;;;;;;15.32;86.02;101426.75;7394240;19;20451;-49